Terminal Aerodrome Forecast
Issued by NWS

Home | Current Version | Previous Version | Text Only | Print | Product List | Glossary On
Versions: 1 2 3 4 5 6 7 8 9 10 11 12 13 14 15 16 17 18 19 20 21 22 23 24 25
000
FTUS45 KBOU 191126
TAFBJC
TAF
KBJC 191126Z 1912/2012 28005KT P6SM FEW140 SCT220
     FM191500 33007KT P6SM FEW140 BKN200
     FM191800 03007KT P6SM FEW140 BKN200
     FM192100 06007KT P6SM FEW140 BKN220
     FM200200 VRB05KT P6SM FEW140 SCT220
     FM200600 25007KT P6SM FEW140 SCT220=

USA.gov is the U.S. government's official web portal to all federal, state and local government web resources and services.